Pagrindinis puslapis
METAR-TAF:

METAR-TAF

Oro uostai :

Raton Municipal Airport (Crews Field)

Raton, Naujoji Meksika, Jungtinės Amerikos Valstijos

platuma: 36-44-31N, ilguma: 104-39-28W, Aukštis: 1935 m

Dabartinis oras

Ataskaita buvo paskelbta 15 minutes, ne 04:43 UTC
Vėjas 21 kt iš Šiaurės/Šiaurės Rytų su gūsio iki 41 kt, svyruoja nuo Šiaurės ir Rytų
Temperatūra 16°C
Drėgmė 88%
Slėgis 1023 hPa
Matomumas: 2.8 km
Mažai debesys ne aukštis 1600 ft
Išsisklaidę debesys ne aukštis 2700 ft
Apsiniaukę ne aukštis 7000 ft
perkūnija, lietus, rūkana

METAR: KRTN 160443Z AUTO 03021G41KT 010V080 1 3/4SM +TSRA BR FEW016 SCT027 OVC070 16/14 A3022 RMK AO2 PK WND 02041/0442 WSHFT 0429 VIS 1V5 LTG DSNT ALQDS RAB05 P0004 T01560139

Laikas: 22:58 (04:58 UTC)


TAF: trūkstamas

Orai ataskaitas ir orų prognozės (METAR, TAF).

turimą stotys yra geltonos ir raudonos taškus žemėlapyje.

Perkelti pele per norėdami pamatyti stoties vardą.

Tada spustelėkite, norėdami matyti oro stebėjimo ir prognozės.

Norėdami pakeisti žemėlapį: spustelėkite ant žalios mygtukų su juodo kryžiaus žemyn,; žalią mygtuką su brūkšneliu, jei norite nutolinti; arba žalių rodyklių gretimoms žemėlapius.


METAR-TAF: